sensor_id;sensor_type;location;lat;lon;timestamp;P1;durP1;ratioP1;P2;durP2;ratioP2
70433;SDS011;57876;47.792;12.960;2022-07-23T00:01:49;6.60;;;2.80;;
70433;SDS011;57876;47.792;12.960;2022-07-23T00:04:14;6.03;;;2.60;;
70433;SDS011;57876;47.792;12.960;2022-07-23T00:06:38;5.77;;;2.40;;
70433;SDS011;57876;47.792;12.960;2022-07-23T00:09:03;6.55;;;2.70;;
70433;SDS011;57876;47.792;12.960;2022-07-23T00:11:27;6.40;;;2.90;;
70433;SDS011;57876;47.792;12.960;2022-07-23T00:13:52;6.53;;;2.77;;
70433;SDS011;57876;47.792;12.960;2022-07-23T00:16:18;6.45;;;2.60;;
70433;SDS011;57876;47.792;12.960;2022-07-23T00:18:43;6.67;;;2.63;;
70433;SDS011;57876;47.792;12.960;2022-07-23T00:21:07;6.20;;;2.50;;
70433;SDS011;57876;47.792;12.960;2022-07-23T00:23:32;5.90;;;2.53;;
70433;SDS011;57876;47.792;12.960;2022-07-23T00:25:56;6.37;;;2.60;;
70433;SDS011;57876;47.792;12.960;2022-07-23T00:28:21;6.53;;;2.60;;
70433;SDS011;57876;47.792;12.960;2022-07-23T00:30:45;6.30;;;2.50;;
70433;SDS011;57876;47.792;12.960;2022-07-23T00:33:10;6.43;;;2.80;;
70433;SDS011;57876;47.792;12.960;2022-07-23T00:35:36;6.13;;;2.38;;
70433;SDS011;57876;47.792;12.960;2022-07-23T00:38:04;6.20;;;2.70;;
70433;SDS011;57876;47.792;12.960;2022-07-23T00:40:29;6.57;;;2.85;;
70433;SDS011;57876;47.792;12.960;2022-07-23T00:42:54;6.80;;;2.72;;
70433;SDS011;57876;47.792;12.960;2022-07-23T00:45:19;6.43;;;2.40;;
70433;SDS011;57876;47.792;12.960;2022-07-23T00:47:44;6.30;;;2.67;;
70433;SDS011;57876;47.792;12.960;2022-07-23T00:50:09;6.13;;;2.33;;
70433;SDS011;57876;47.792;12.960;2022-07-23T00:52:34;6.15;;;2.40;;
70433;SDS011;57876;47.792;12.960;2022-07-23T00:55:00;5.70;;;2.47;;
70433;SDS011;57876;47.792;12.960;2022-07-23T00:57:25;6.53;;;2.60;;
70433;SDS011;57876;47.792;12.960;2022-07-23T00:59:49;6.85;;;2.60;;
70433;SDS011;57876;47.792;12.960;2022-07-23T01:02:14;6.20;;;2.20;;
70433;SDS011;57876;47.792;12.960;2022-07-23T01:04:38;5.40;;;2.40;;
70433;SDS011;57876;47.792;12.960;2022-07-23T01:07:03;6.57;;;2.30;;
70433;SDS011;57876;47.792;12.960;2022-07-23T01:09:27;6.33;;;2.30;;
70433;SDS011;57876;47.792;12.960;2022-07-23T01:11:52;5.50;;;2.07;;
70433;SDS011;57876;47.792;12.960;2022-07-23T01:14:18;6.07;;;2.45;;
70433;SDS011;57876;47.792;12.960;2022-07-23T01:16:43;6.67;;;2.47;;
70433;SDS011;57876;47.792;12.960;2022-07-23T01:19:10;5.78;;;2.40;;
70433;SDS011;57876;47.792;12.960;2022-07-23T01:21:35;5.90;;;2.70;;
70433;SDS011;57876;47.792;12.960;2022-07-23T01:24:01;6.07;;;2.50;;
70433;SDS011;57876;47.792;12.960;2022-07-23T01:26:25;5.63;;;2.10;;
70433;SDS011;57876;47.792;12.960;2022-07-23T01:28:50;5.73;;;2.50;;
70433;SDS011;57876;47.792;12.960;2022-07-23T01:31:14;5.63;;;2.60;;
70433;SDS011;57876;47.792;12.960;2022-07-23T01:33:38;5.57;;;2.40;;
70433;SDS011;57876;47.792;12.960;2022-07-23T01:36:03;5.90;;;2.53;;
70433;SDS011;57876;47.792;12.960;2022-07-23T01:38:27;7.23;;;2.40;;
70433;SDS011;57876;47.792;12.960;2022-07-23T01:40:52;5.70;;;2.40;;
70433;SDS011;57876;47.792;12.960;2022-07-23T01:43:16;5.70;;;2.20;;
70433;SDS011;57876;47.792;12.960;2022-07-23T01:45:40;6.63;;;2.37;;
70433;SDS011;57876;47.792;12.960;2022-07-23T01:48:07;6.00;;;2.40;;
70433;SDS011;57876;47.792;12.960;2022-07-23T01:50:31;5.60;;;2.10;;
70433;SDS011;57876;47.792;12.960;2022-07-23T01:52:55;5.67;;;2.23;;
70433;SDS011;57876;47.792;12.960;2022-07-23T01:55:20;5.70;;;2.17;;
70433;SDS011;57876;47.792;12.960;2022-07-23T01:57:45;5.13;;;1.93;;
70433;SDS011;57876;47.792;12.960;2022-07-23T02:00:09;5.90;;;2.35;;
70433;SDS011;57876;47.792;12.960;2022-07-23T02:02:34;5.77;;;2.50;;
70433;SDS011;57876;47.792;12.960;2022-07-23T02:04:59;5.70;;;2.08;;
70433;SDS011;57876;47.792;12.960;2022-07-23T02:07:23;5.93;;;2.10;;
70433;SDS011;57876;47.792;12.960;2022-07-23T02:09:47;5.63;;;2.33;;
70433;SDS011;57876;47.792;12.960;2022-07-23T02:12:12;5.90;;;2.00;;
70433;SDS011;57876;47.792;12.960;2022-07-23T02:14:36;5.70;;;2.03;;
70433;SDS011;57876;47.792;12.960;2022-07-23T02:17:01;5.78;;;2.30;;
70433;SDS011;57876;47.792;12.960;2022-07-23T02:19:25;5.77;;;2.30;;
70433;SDS011;57876;47.792;12.960;2022-07-23T02:21:50;5.83;;;2.30;;
70433;SDS011;57876;47.792;12.960;2022-07-23T02:24:14;5.63;;;2.30;;
70433;SDS011;57876;47.792;12.960;2022-07-23T02:26:39;5.77;;;2.20;;
70433;SDS011;57876;47.792;12.960;2022-07-23T02:29:04;6.82;;;2.15;;
70433;SDS011;57876;47.792;12.960;2022-07-23T02:31:30;6.37;;;2.20;;
70433;SDS011;57876;47.792;12.960;2022-07-23T02:33:54;5.63;;;2.30;;
70433;SDS011;57876;47.792;12.960;2022-07-23T02:36:19;5.53;;;2.00;;
70433;SDS011;57876;47.792;12.960;2022-07-23T02:38:43;5.80;;;2.03;;
70433;SDS011;57876;47.792;12.960;2022-07-23T02:41:08;5.60;;;2.30;;
70433;SDS011;57876;47.792;12.960;2022-07-23T02:43:32;5.85;;;2.40;;
70433;SDS011;57876;47.792;12.960;2022-07-23T02:45:56;5.80;;;2.20;;
70433;SDS011;57876;47.792;12.960;2022-07-23T02:48:21;5.63;;;2.27;;
70433;SDS011;57876;47.792;12.960;2022-07-23T02:50:45;6.07;;;2.23;;
70433;SDS011;57876;47.792;12.960;2022-07-23T02:53:10;5.73;;;1.97;;
70433;SDS011;57876;47.792;12.960;2022-07-23T02:55:34;5.53;;;2.03;;
70433;SDS011;57876;47.792;12.960;2022-07-23T02:57:58;5.73;;;2.27;;
70433;SDS011;57876;47.792;12.960;2022-07-23T03:00:23;5.57;;;2.20;;
70433;SDS011;57876;47.792;12.960;2022-07-23T03:02:47;6.70;;;2.30;;
70433;SDS011;57876;47.792;12.960;2022-07-23T03:05:12;5.67;;;2.00;;
70433;SDS011;57876;47.792;12.960;2022-07-23T03:07:36;5.60;;;1.92;;
70433;SDS011;57876;47.792;12.960;2022-07-23T03:10:00;5.90;;;2.30;;
70433;SDS011;57876;47.792;12.960;2022-07-23T03:12:25;6.30;;;2.10;;
70433;SDS011;57876;47.792;12.960;2022-07-23T03:14:50;5.30;;;2.00;;
70433;SDS011;57876;47.792;12.960;2022-07-23T03:17:14;6.43;;;2.30;;
70433;SDS011;57876;47.792;12.960;2022-07-23T03:19:38;6.00;;;2.07;;
70433;SDS011;57876;47.792;12.960;2022-07-23T03:22:03;6.00;;;2.17;;
70433;SDS011;57876;47.792;12.960;2022-07-23T03:24:27;5.40;;;2.10;;
70433;SDS011;57876;47.792;12.960;2022-07-23T03:27:12;6.03;;;2.30;;
70433;SDS011;57876;47.792;12.960;2022-07-23T03:29:36;6.15;;;2.40;;
70433;SDS011;57876;47.792;12.960;2022-07-23T03:32:01;5.50;;;2.10;;
70433;SDS011;57876;47.792;12.960;2022-07-23T03:34:26;6.50;;;2.45;;
70433;SDS011;57876;47.792;12.960;2022-07-23T03:36:51;5.97;;;2.33;;
70433;SDS011;57876;47.792;12.960;2022-07-23T03:39:15;6.30;;;2.80;;
70433;SDS011;57876;47.792;12.960;2022-07-23T03:41:40;6.40;;;2.70;;
70433;SDS011;57876;47.792;12.960;2022-07-23T03:44:04;6.20;;;2.50;;
70433;SDS011;57876;47.792;12.960;2022-07-23T03:46:28;5.73;;;2.47;;
70433;SDS011;57876;47.792;12.960;2022-07-23T03:48:53;5.43;;;2.20;;
70433;SDS011;57876;47.792;12.960;2022-07-23T03:51:17;5.97;;;2.60;;
70433;SDS011;57876;47.792;12.960;2022-07-23T03:53:41;6.47;;;2.70;;
70433;SDS011;57876;47.792;12.960;2022-07-23T03:56:06;6.33;;;2.70;;
70433;SDS011;57876;47.792;12.960;2022-07-23T03:58:30;5.73;;;2.70;;
70433;SDS011;57876;47.792;12.960;2022-07-23T04:00:55;6.70;;;3.50;;
70433;SDS011;57876;47.792;12.960;2022-07-23T04:03:19;6.83;;;2.90;;
70433;SDS011;57876;47.792;12.960;2022-07-23T04:05:44;6.03;;;2.67;;
70433;SDS011;57876;47.792;12.960;2022-07-23T04:08:08;7.40;;;2.60;;
70433;SDS011;57876;47.792;12.960;2022-07-23T04:10:32;6.67;;;2.87;;
70433;SDS011;57876;47.792;12.960;2022-07-23T04:12:57;6.20;;;2.80;;
70433;SDS011;57876;47.792;12.960;2022-07-23T04:15:21;7.40;;;2.90;;
70433;SDS011;57876;47.792;12.960;2022-07-23T04:17:45;7.68;;;2.85;;
70433;SDS011;57876;47.792;12.960;2022-07-23T04:20:11;6.27;;;2.70;;
70433;SDS011;57876;47.792;12.960;2022-07-23T04:22:35;5.80;;;2.38;;
70433;SDS011;57876;47.792;12.960;2022-07-23T04:25:00;6.65;;;2.83;;
70433;SDS011;57876;47.792;12.960;2022-07-23T04:27:25;6.73;;;3.13;;
70433;SDS011;57876;47.792;12.960;2022-07-23T04:29:49;6.13;;;2.53;;
70433;SDS011;57876;47.792;12.960;2022-07-23T04:32:13;6.10;;;2.80;;
70433;SDS011;57876;47.792;12.960;2022-07-23T04:34:38;7.03;;;3.08;;
70433;SDS011;57876;47.792;12.960;2022-07-23T04:37:02;6.53;;;2.70;;
70433;SDS011;57876;47.792;12.960;2022-07-23T04:39:27;6.93;;;2.70;;
70433;SDS011;57876;47.792;12.960;2022-07-23T04:41:51;6.43;;;2.67;;
70433;SDS011;57876;47.792;12.960;2022-07-23T04:44:15;6.43;;;2.60;;
70433;SDS011;57876;47.792;12.960;2022-07-23T04:46:40;5.90;;;2.70;;
70433;SDS011;57876;47.792;12.960;2022-07-23T04:49:04;6.00;;;2.53;;
70433;SDS011;57876;47.792;12.960;2022-07-23T04:51:29;6.10;;;2.50;;
70433;SDS011;57876;47.792;12.960;2022-07-23T04:53:53;6.40;;;2.83;;
70433;SDS011;57876;47.792;12.960;2022-07-23T04:56:18;6.30;;;2.60;;
70433;SDS011;57876;47.792;12.960;2022-07-23T04:58:42;6.13;;;2.80;;
70433;SDS011;57876;47.792;12.960;2022-07-23T05:01:07;7.00;;;2.87;;
70433;SDS011;57876;47.792;12.960;2022-07-23T05:03:31;6.63;;;2.90;;
70433;SDS011;57876;47.792;12.960;2022-07-23T05:05:56;6.37;;;2.63;;
70433;SDS011;57876;47.792;12.960;2022-07-23T05:08:20;6.03;;;2.83;;
70433;SDS011;57876;47.792;12.960;2022-07-23T05:10:45;7.20;;;3.00;;
70433;SDS011;57876;47.792;12.960;2022-07-23T05:13:09;6.83;;;2.53;;
70433;SDS011;57876;47.792;12.960;2022-07-23T05:15:34;6.10;;;2.33;;
70433;SDS011;57876;47.792;12.960;2022-07-23T05:17:58;6.28;;;2.75;;
70433;SDS011;57876;47.792;12.960;2022-07-23T05:20:23;6.40;;;2.83;;
70433;SDS011;57876;47.792;12.960;2022-07-23T05:22:47;6.93;;;2.87;;
70433;SDS011;57876;47.792;12.960;2022-07-23T05:25:12;6.40;;;2.67;;
70433;SDS011;57876;47.792;12.960;2022-07-23T05:27:36;6.10;;;2.60;;
70433;SDS011;57876;47.792;12.960;2022-07-23T05:30:00;7.07;;;2.80;;
70433;SDS011;57876;47.792;12.960;2022-07-23T05:32:25;6.30;;;2.87;;
70433;SDS011;57876;47.792;12.960;2022-07-23T05:34:49;6.63;;;2.93;;
70433;SDS011;57876;47.792;12.960;2022-07-23T05:37:14;6.63;;;3.00;;
70433;SDS011;57876;47.792;12.960;2022-07-23T05:39:38;6.17;;;2.60;;
70433;SDS011;57876;47.792;12.960;2022-07-23T05:42:03;6.33;;;2.87;;
70433;SDS011;57876;47.792;12.960;2022-07-23T05:44:27;6.40;;;2.80;;
70433;SDS011;57876;47.792;12.960;2022-07-23T05:46:52;6.78;;;2.88;;
70433;SDS011;57876;47.792;12.960;2022-07-23T05:49:16;6.57;;;2.80;;
70433;SDS011;57876;47.792;12.960;2022-07-23T05:51:40;6.23;;;2.80;;
70433;SDS011;57876;47.792;12.960;2022-07-23T05:54:05;6.23;;;2.90;;
70433;SDS011;57876;47.792;12.960;2022-07-23T05:56:29;6.83;;;2.90;;
70433;SDS011;57876;47.792;12.960;2022-07-23T05:58:53;7.20;;;3.00;;
70433;SDS011;57876;47.792;12.960;2022-07-23T06:01:18;6.03;;;2.60;;
70433;SDS011;57876;47.792;12.960;2022-07-23T06:03:42;7.10;;;2.90;;
70433;SDS011;57876;47.792;12.960;2022-07-23T06:06:07;6.77;;;2.70;;
70433;SDS011;57876;47.792;12.960;2022-07-23T06:08:31;7.13;;;2.67;;
70433;SDS011;57876;47.792;12.960;2022-07-23T06:10:55;6.03;;;2.60;;
70433;SDS011;57876;47.792;12.960;2022-07-23T06:13:20;7.10;;;2.60;;
70433;SDS011;57876;47.792;12.960;2022-07-23T06:15:44;7.20;;;2.73;;
70433;SDS011;57876;47.792;12.960;2022-07-23T06:18:09;5.70;;;2.60;;
70433;SDS011;57876;47.792;12.960;2022-07-23T06:20:33;6.35;;;2.35;;
70433;SDS011;57876;47.792;12.960;2022-07-23T06:22:58;6.20;;;2.70;;
70433;SDS011;57876;47.792;12.960;2022-07-23T06:25:22;6.23;;;2.63;;
70433;SDS011;57876;47.792;12.960;2022-07-23T06:27:47;6.00;;;2.50;;
70433;SDS011;57876;47.792;12.960;2022-07-23T06:30:11;6.75;;;3.00;;
70433;SDS011;57876;47.792;12.960;2022-07-23T06:32:36;6.80;;;2.80;;
70433;SDS011;57876;47.792;12.960;2022-07-23T06:35:01;6.80;;;2.80;;
70433;SDS011;57876;47.792;12.960;2022-07-23T06:37:25;5.93;;;2.57;;
70433;SDS011;57876;47.792;12.960;2022-07-23T06:39:49;6.83;;;2.73;;
70433;SDS011;57876;47.792;12.960;2022-07-23T06:42:14;6.10;;;2.38;;
70433;SDS011;57876;47.792;12.960;2022-07-23T06:44:38;6.23;;;2.53;;
70433;SDS011;57876;47.792;12.960;2022-07-23T06:47:03;5.70;;;2.47;;
70433;SDS011;57876;47.792;12.960;2022-07-23T06:49:27;5.93;;;2.47;;
70433;SDS011;57876;47.792;12.960;2022-07-23T06:51:52;6.40;;;2.53;;
70433;SDS011;57876;47.792;12.960;2022-07-23T06:54:16;6.30;;;3.07;;
70433;SDS011;57876;47.792;12.960;2022-07-23T06:56:41;6.33;;;2.80;;
70433;SDS011;57876;47.792;12.960;2022-07-23T06:59:06;6.50;;;2.85;;
70433;SDS011;57876;47.792;12.960;2022-07-23T07:01:31;6.33;;;2.67;;
70433;SDS011;57876;47.792;12.960;2022-07-23T07:03:55;6.43;;;2.77;;
70433;SDS011;57876;47.792;12.960;2022-07-23T07:06:19;8.00;;;2.90;;
70433;SDS011;57876;47.792;12.960;2022-07-23T07:08:44;6.57;;;2.77;;
70433;SDS011;57876;47.792;12.960;2022-07-23T07:11:08;6.27;;;2.67;;
70433;SDS011;57876;47.792;12.960;2022-07-23T07:13:33;6.17;;;2.73;;
70433;SDS011;57876;47.792;12.960;2022-07-23T07:15:57;6.43;;;2.83;;
70433;SDS011;57876;47.792;12.960;2022-07-23T07:18:22;6.50;;;3.10;;
70433;SDS011;57876;47.792;12.960;2022-07-23T07:20:46;5.90;;;2.60;;
70433;SDS011;57876;47.792;12.960;2022-07-23T07:23:11;6.20;;;2.80;;
70433;SDS011;57876;47.792;12.960;2022-07-23T07:25:36;6.90;;;2.78;;
70433;SDS011;57876;47.792;12.960;2022-07-23T07:28:00;6.90;;;2.80;;
70433;SDS011;57876;47.792;12.960;2022-07-23T07:30:25;6.57;;;2.70;;
70433;SDS011;57876;47.792;12.960;2022-07-23T07:32:49;6.10;;;2.58;;
70433;SDS011;57876;47.792;12.960;2022-07-23T07:35:13;6.50;;;3.00;;
70433;SDS011;57876;47.792;12.960;2022-07-23T07:37:38;6.40;;;2.70;;
70433;SDS011;57876;47.792;12.960;2022-07-23T07:40:02;6.43;;;2.80;;
70433;SDS011;57876;47.792;12.960;2022-07-23T07:42:27;6.40;;;2.75;;
70433;SDS011;57876;47.792;12.960;2022-07-23T07:44:52;6.73;;;2.90;;
70433;SDS011;57876;47.792;12.960;2022-07-23T07:47:16;6.33;;;2.77;;
70433;SDS011;57876;47.792;12.960;2022-07-23T07:49:41;6.00;;;2.70;;
70433;SDS011;57876;47.792;12.960;2022-07-23T07:52:06;6.88;;;2.67;;
70433;SDS011;57876;47.792;12.960;2022-07-23T07:54:30;6.40;;;2.83;;
70433;SDS011;57876;47.792;12.960;2022-07-23T07:56:56;6.80;;;3.00;;
70433;SDS011;57876;47.792;12.960;2022-07-23T07:59:20;6.97;;;3.20;;
70433;SDS011;57876;47.792;12.960;2022-07-23T08:01:45;6.83;;;3.00;;
70433;SDS011;57876;47.792;12.960;2022-07-23T08:04:09;7.20;;;3.10;;
70433;SDS011;57876;47.792;12.960;2022-07-23T08:06:33;6.50;;;2.80;;
70433;SDS011;57876;47.792;12.960;2022-07-23T08:08:58;6.90;;;3.00;;
70433;SDS011;57876;47.792;12.960;2022-07-23T08:11:22;7.40;;;3.00;;
70433;SDS011;57876;47.792;12.960;2022-07-23T08:13:46;6.17;;;3.00;;
70433;SDS011;57876;47.792;12.960;2022-07-23T08:16:11;6.53;;;2.90;;
70433;SDS011;57876;47.792;12.960;2022-07-23T08:18:36;6.67;;;2.90;;
70433;SDS011;57876;47.792;12.960;2022-07-23T08:21:00;6.70;;;3.03;;
70433;SDS011;57876;47.792;12.960;2022-07-23T08:23:24;7.00;;;2.60;;
70433;SDS011;57876;47.792;12.960;2022-07-23T08:25:49;6.60;;;3.08;;
70433;SDS011;57876;47.792;12.960;2022-07-23T08:28:14;7.07;;;3.10;;
70433;SDS011;57876;47.792;12.960;2022-07-23T08:30:40;6.60;;;3.00;;
70433;SDS011;57876;47.792;12.960;2022-07-23T08:33:12;6.50;;;2.93;;
70433;SDS011;57876;47.792;12.960;2022-07-23T08:35:39;6.80;;;3.33;;
70433;SDS011;57876;47.792;12.960;2022-07-23T08:38:06;6.45;;;2.97;;
70433;SDS011;57876;47.792;12.960;2022-07-23T08:40:33;6.47;;;3.20;;
70433;SDS011;57876;47.792;12.960;2022-07-23T08:42:59;6.40;;;2.75;;
70433;SDS011;57876;47.792;12.960;2022-07-23T08:45:25;6.43;;;2.97;;
70433;SDS011;57876;47.792;12.960;2022-07-23T08:47:51;7.22;;;3.30;;
70433;SDS011;57876;47.792;12.960;2022-07-23T08:50:17;7.35;;;3.35;;
70433;SDS011;57876;47.792;12.960;2022-07-23T08:52:41;6.63;;;3.30;;
70433;SDS011;57876;47.792;12.960;2022-07-23T08:55:06;6.07;;;2.87;;
70433;SDS011;57876;47.792;12.960;2022-07-23T08:57:31;6.70;;;2.85;;
70433;SDS011;57876;47.792;12.960;2022-07-23T08:59:56;6.43;;;2.80;;
70433;SDS011;57876;47.792;12.960;2022-07-23T09:02:21;5.93;;;2.65;;
70433;SDS011;57876;47.792;12.960;2022-07-23T09:04:45;6.50;;;3.00;;
70433;SDS011;57876;47.792;12.960;2022-07-23T09:07:09;5.80;;;2.58;;
70433;SDS011;57876;47.792;12.960;2022-07-23T09:09:34;6.53;;;3.00;;
70433;SDS011;57876;47.792;12.960;2022-07-23T09:12:02;6.37;;;2.83;;
70433;SDS011;57876;47.792;12.960;2022-07-23T09:17:09;6.13;;;2.72;;
70433;SDS011;57876;47.792;12.960;2022-07-23T09:19:34;6.25;;;2.78;;
70433;SDS011;57876;47.792;12.960;2022-07-23T09:21:58;6.87;;;2.90;;
70433;SDS011;57876;47.792;12.960;2022-07-23T09:25:05;6.47;;;2.80;;
70433;SDS011;57876;47.792;12.960;2022-07-23T09:27:55;6.37;;;2.93;;
70433;SDS011;57876;47.792;12.960;2022-07-23T09:30:20;6.20;;;2.83;;
70433;SDS011;57876;47.792;12.960;2022-07-23T09:33:05;6.30;;;2.75;;
70433;SDS011;57876;47.792;12.960;2022-07-23T09:35:48;6.47;;;2.80;;
70433;SDS011;57876;47.792;12.960;2022-07-23T09:38:17;6.30;;;2.90;;
70433;SDS011;57876;47.792;12.960;2022-07-23T09:40:43;6.20;;;2.60;;
70433;SDS011;57876;47.792;12.960;2022-07-23T09:43:08;6.00;;;2.60;;
70433;SDS011;57876;47.792;12.960;2022-07-23T09:45:32;6.20;;;2.77;;
70433;SDS011;57876;47.792;12.960;2022-07-23T09:48:10;6.45;;;2.67;;
70433;SDS011;57876;47.792;12.960;2022-07-23T09:50:38;6.50;;;2.70;;
70433;SDS011;57876;47.792;12.960;2022-07-23T09:53:03;5.93;;;2.45;;
70433;SDS011;57876;47.792;12.960;2022-07-23T09:55:31;7.03;;;3.10;;
70433;SDS011;57876;47.792;12.960;2022-07-23T09:58:04;6.47;;;2.67;;
70433;SDS011;57876;47.792;12.960;2022-07-23T10:00:30;6.95;;;2.83;;
70433;SDS011;57876;47.792;12.960;2022-07-23T10:02:55;6.82;;;2.72;;
70433;SDS011;57876;47.792;12.960;2022-07-23T10:05:20;6.83;;;2.93;;
70433;SDS011;57876;47.792;12.960;2022-07-23T10:07:45;6.55;;;2.60;;
70433;SDS011;57876;47.792;12.960;2022-07-23T10:10:10;6.38;;;2.70;;
70433;SDS011;57876;47.792;12.960;2022-07-23T10:12:36;6.10;;;2.80;;
70433;SDS011;57876;47.792;12.960;2022-07-23T10:15:04;6.33;;;2.77;;
70433;SDS011;57876;47.792;12.960;2022-07-23T10:17:30;6.32;;;2.63;;
70433;SDS011;57876;47.792;12.960;2022-07-23T10:19:55;6.03;;;2.67;;
70433;SDS011;57876;47.792;12.960;2022-07-23T10:22:20;6.15;;;2.78;;
70433;SDS011;57876;47.792;12.960;2022-07-23T10:37:57;5.80;;;2.42;;
70433;SDS011;57876;47.792;12.960;2022-07-23T10:40:31;6.50;;;2.53;;
70433;SDS011;57876;47.792;12.960;2022-07-23T10:42:58;6.07;;;2.72;;
70433;SDS011;57876;47.792;12.960;2022-07-23T10:45:26;6.20;;;2.50;;
70433;SDS011;57876;47.792;12.960;2022-07-23T10:48:17;5.55;;;2.25;;
70433;SDS011;57876;47.792;12.960;2022-07-23T10:51:19;6.13;;;2.53;;
70433;SDS011;57876;47.792;12.960;2022-07-23T10:56:15;5.85;;;2.53;;
70433;SDS011;57876;47.792;12.960;2022-07-23T10:58:46;5.60;;;2.37;;
70433;SDS011;57876;47.792;12.960;2022-07-23T11:03:58;6.63;;;2.85;;
70433;SDS011;57876;47.792;12.960;2022-07-23T11:06:23;6.45;;;2.65;;
70433;SDS011;57876;47.792;12.960;2022-07-23T11:08:47;5.80;;;2.23;;
70433;SDS011;57876;47.792;12.960;2022-07-23T11:17:38;6.07;;;2.88;;
70433;SDS011;57876;47.792;12.960;2022-07-23T11:20:24;6.22;;;2.58;;
70433;SDS011;57876;47.792;12.960;2022-07-23T11:22:49;6.10;;;2.65;;
70433;SDS011;57876;47.792;12.960;2022-07-23T11:27:46;6.45;;;3.00;;
70433;SDS011;57876;47.792;12.960;2022-07-23T11:35:31;5.68;;;2.45;;
70433;SDS011;57876;47.792;12.960;2022-07-23T11:40:49;5.80;;;2.40;;
70433;SDS011;57876;47.792;12.960;2022-07-23T11:43:16;5.97;;;2.67;;
70433;SDS011;57876;47.792;12.960;2022-07-23T11:45:49;6.43;;;2.45;;
70433;SDS011;57876;47.792;12.960;2022-07-23T11:48:25;6.45;;;2.60;;
70433;SDS011;57876;47.792;12.960;2022-07-23T11:50:51;6.25;;;2.60;;
70433;SDS011;57876;47.792;12.960;2022-07-23T11:53:27;5.75;;;2.60;;
70433;SDS011;57876;47.792;12.960;2022-07-23T11:55:53;6.13;;;2.60;;
70433;SDS011;57876;47.792;12.960;2022-07-23T11:58:19;5.85;;;2.35;;
70433;SDS011;57876;47.792;12.960;2022-07-23T12:00:43;6.07;;;2.50;;
70433;SDS011;57876;47.792;12.960;2022-07-23T12:03:11;6.65;;;2.90;;
70433;SDS011;57876;47.792;12.960;2022-07-23T12:05:36;6.07;;;2.55;;
70433;SDS011;57876;47.792;12.960;2022-07-23T12:08:02;5.87;;;2.60;;
70433;SDS011;57876;47.792;12.960;2022-07-23T12:10:39;6.53;;;2.67;;
70433;SDS011;57876;47.792;12.960;2022-07-23T12:13:06;6.15;;;2.75;;
70433;SDS011;57876;47.792;12.960;2022-07-23T12:15:35;6.20;;;2.60;;
70433;SDS011;57876;47.792;12.960;2022-07-23T12:18:03;6.15;;;2.80;;
70433;SDS011;57876;47.792;12.960;2022-07-23T12:20:29;6.10;;;2.47;;
70433;SDS011;57876;47.792;12.960;2022-07-23T12:22:56;6.30;;;2.45;;
70433;SDS011;57876;47.792;12.960;2022-07-23T12:25:24;6.20;;;2.42;;
70433;SDS011;57876;47.792;12.960;2022-07-23T12:30:31;6.65;;;2.80;;
70433;SDS011;57876;47.792;12.960;2022-07-23T12:32:57;5.77;;;2.37;;
70433;SDS011;57876;47.792;12.960;2022-07-23T12:35:22;5.95;;;2.47;;
70433;SDS011;57876;47.792;12.960;2022-07-23T12:37:58;6.00;;;2.60;;
70433;SDS011;57876;47.792;12.960;2022-07-23T12:42:52;5.63;;;2.42;;
70433;SDS011;57876;47.792;12.960;2022-07-23T12:45:21;6.40;;;2.60;;
70433;SDS011;57876;47.792;12.960;2022-07-23T12:48:00;6.05;;;2.58;;
70433;SDS011;57876;47.792;12.960;2022-07-23T12:53:07;5.90;;;2.50;;
70433;SDS011;57876;47.792;12.960;2022-07-23T12:55:34;6.40;;;2.70;;
70433;SDS011;57876;47.792;12.960;2022-07-23T12:58:03;6.88;;;2.50;;
70433;SDS011;57876;47.792;12.960;2022-07-23T13:00:29;5.82;;;2.45;;
70433;SDS011;57876;47.792;12.960;2022-07-23T13:02:53;5.80;;;2.43;;
70433;SDS011;57876;47.792;12.960;2022-07-23T13:05:17;7.23;;;2.80;;
70433;SDS011;57876;47.792;12.960;2022-07-23T13:07:42;6.25;;;2.55;;
70433;SDS011;57876;47.792;12.960;2022-07-23T13:10:06;5.43;;;2.30;;
70433;SDS011;57876;47.792;12.960;2022-07-23T13:12:31;6.00;;;2.40;;
70433;SDS011;57876;47.792;12.960;2022-07-23T13:14:55;6.40;;;2.70;;
70433;SDS011;57876;47.792;12.960;2022-07-23T13:17:20;6.10;;;2.50;;
70433;SDS011;57876;47.792;12.960;2022-07-23T13:19:44;5.70;;;2.40;;
70433;SDS011;57876;47.792;12.960;2022-07-23T13:22:09;5.97;;;2.40;;
70433;SDS011;57876;47.792;12.960;2022-07-23T13:24:33;5.87;;;2.57;;
70433;SDS011;57876;47.792;12.960;2022-07-23T13:26:57;7.13;;;2.92;;
70433;SDS011;57876;47.792;12.960;2022-07-23T13:29:24;5.50;;;2.40;;
70433;SDS011;57876;47.792;12.960;2022-07-23T13:31:48;5.93;;;2.53;;
70433;SDS011;57876;47.792;12.960;2022-07-23T13:34:13;5.87;;;2.57;;
70433;SDS011;57876;47.792;12.960;2022-07-23T13:36:37;5.53;;;2.30;;
70433;SDS011;57876;47.792;12.960;2022-07-23T13:39:02;6.27;;;2.83;;
70433;SDS011;57876;47.792;12.960;2022-07-23T13:41:27;5.90;;;2.40;;
70433;SDS011;57876;47.792;12.960;2022-07-23T13:43:51;6.37;;;2.67;;
70433;SDS011;57876;47.792;12.960;2022-07-23T13:46:16;5.97;;;2.40;;
70433;SDS011;57876;47.792;12.960;2022-07-23T13:48:40;5.70;;;2.50;;
70433;SDS011;57876;47.792;12.960;2022-07-23T13:51:04;6.17;;;2.50;;
70433;SDS011;57876;47.792;12.960;2022-07-23T13:53:29;6.57;;;2.53;;
70433;SDS011;57876;47.792;12.960;2022-07-23T13:55:53;6.17;;;2.40;;
70433;SDS011;57876;47.792;12.960;2022-07-23T13:58:18;6.20;;;2.90;;
70433;SDS011;57876;47.792;12.960;2022-07-23T14:00:45;6.30;;;2.70;;
70433;SDS011;57876;47.792;12.960;2022-07-23T14:03:14;6.20;;;2.70;;
70433;SDS011;57876;47.792;12.960;2022-07-23T14:05:39;6.13;;;2.60;;
70433;SDS011;57876;47.792;12.960;2022-07-23T14:08:05;6.63;;;2.72;;
70433;SDS011;57876;47.792;12.960;2022-07-23T14:10:29;6.07;;;2.40;;
70433;SDS011;57876;47.792;12.960;2022-07-23T14:12:54;6.10;;;2.50;;
70433;SDS011;57876;47.792;12.960;2022-07-23T14:15:20;6.05;;;2.60;;
70433;SDS011;57876;47.792;12.960;2022-07-23T14:17:45;5.87;;;2.57;;
70433;SDS011;57876;47.792;12.960;2022-07-23T14:20:10;5.80;;;2.50;;
70433;SDS011;57876;47.792;12.960;2022-07-23T14:22:35;6.55;;;3.00;;
70433;SDS011;57876;47.792;12.960;2022-07-23T14:25:00;6.17;;;2.73;;
70433;SDS011;57876;47.792;12.960;2022-07-23T14:27:25;6.15;;;2.70;;
70433;SDS011;57876;47.792;12.960;2022-07-23T14:29:51;6.43;;;2.90;;
70433;SDS011;57876;47.792;12.960;2022-07-23T14:32:16;6.47;;;2.60;;
70433;SDS011;57876;47.792;12.960;2022-07-23T14:34:40;6.00;;;2.63;;
70433;SDS011;57876;47.792;12.960;2022-07-23T14:37:05;6.33;;;2.60;;
70433;SDS011;57876;47.792;12.960;2022-07-23T14:39:29;6.88;;;2.75;;
70433;SDS011;57876;47.792;12.960;2022-07-23T14:41:54;5.70;;;2.50;;
70433;SDS011;57876;47.792;12.960;2022-07-23T14:44:18;6.63;;;2.67;;
70433;SDS011;57876;47.792;12.960;2022-07-23T14:46:43;6.30;;;2.70;;
70433;SDS011;57876;47.792;12.960;2022-07-23T14:49:08;6.67;;;2.50;;
70433;SDS011;57876;47.792;12.960;2022-07-23T14:51:32;5.77;;;2.57;;
70433;SDS011;57876;47.792;12.960;2022-07-23T14:53:56;5.90;;;2.30;;
70433;SDS011;57876;47.792;12.960;2022-07-23T14:56:21;6.57;;;2.80;;
70433;SDS011;57876;47.792;12.960;2022-07-23T14:58:45;5.80;;;2.50;;
70433;SDS011;57876;47.792;12.960;2022-07-23T15:01:10;6.65;;;2.80;;
70433;SDS011;57876;47.792;12.960;2022-07-23T15:03:34;6.33;;;2.50;;
70433;SDS011;57876;47.792;12.960;2022-07-23T15:05:59;6.30;;;2.53;;
70433;SDS011;57876;47.792;12.960;2022-07-23T15:08:24;6.28;;;2.60;;
70433;SDS011;57876;47.792;12.960;2022-07-23T15:10:48;6.27;;;2.57;;